Terminal Aerodrome Forecast
Issued by NWS Wichita, KS

Home | Current Version | Previous Version | Text Only | Print | Product List | Glossary Off
Versions: 1 2 3 4 5 6 7 8 9 10 11 12 13 14 15 16

000
FTUS43 KICT 211739
TAFICT
TAF
KICT 211739Z 2118/2218 07008KT 6SM -SHRA SCT010 OVC050
     FM212100 07010KT 5SM -SHRA BKN010 OVC040
     FM220000 04010KT 5SM -SHRA OVC010
     FM220300 02009KT 5SM BR VCSH OVC009
     FM220600 01009KT 5SM BR VCSH OVC008=

USA.gov is the U.S. government's official web portal to all federal, state and local government web resources and services.